Time;durP1;ratioP1;P1;durP2;ratioP2;P2;SDS_P1;SDS_P2;PMS_P1;PMS_P2;Temp;Humidity;BMP_temperature;BMP_pressure;BME280_temperature;BME280_humidity;BME280_pressure;Samples;Min_cycle;Max_cycle;Signal;HPM_P1;HPM_P2
2024/03/26 00:18:28;;;;;;;11.30;4.28;;;;;;;;;;4937181;28;20086;-48
2024/03/26 00:21:21;;;;;;;9.70;4.45;;;;;;;;;;4923688;28;20593;-48
2024/03/26 00:24:14;;;;;;;10.52;4.72;;;;;;;;;;4923933;29;20553;-53
2024/03/26 00:27:01;;;;;;;9.60;4.80;;;;;;;;;;4922514;28;20547;-50
2024/03/26 00:29:57;;;;;;;9.20;4.25;;;;;;;;;;4923972;29;20055;-49
2024/03/26 00:32:43;;;;;;;7.22;4.50;;;;;;;;;;4922788;28;20062;-63
2024/03/26 00:35:36;;;;;;;10.32;4.47;;;;;;;;;;4921409;28;20051;-63
2024/03/26 00:38:23;;;;;;;7.97;3.95;;;;;;;;;;4934563;28;20067;-63
2024/03/26 00:41:15;;;;;;;8.77;4.70;;;;;;;;;;4920950;29;20059;-51
2024/03/26 00:44:08;;;;;;;7.13;4.20;;;;;;;;;;4937914;28;20066;-64
2024/03/26 00:46:55;;;;;;;9.88;4.70;;;;;;;;;;4923411;28;20108;-63
2024/03/26 00:49:47;;;;;;;6.90;4.25;;;;;;;;;;4920361;28;20062;-63
2024/03/26 00:52:34;;;;;;;6.75;3.95;;;;;;;;;;4923417;28;20497;-64
2024/03/26 00:55:26;;;;;;;7.65;4.43;;;;;;;;;;4925055;28;20066;-64
2024/03/26 00:58:13;;;;;;;11.27;4.55;;;;;;;;;;4926562;28;20055;-63
2024/03/26 01:01:06;;;;;;;8.57;4.35;;;;;;;;;;4939671;28;20532;-51
2024/03/26 01:03:53;;;;;;;7.38;4.50;;;;;;;;;;4938249;28;20047;-48
2024/03/26 01:06:45;;;;;;;6.70;4.13;;;;;;;;;;4935997;28;20536;-53
2024/03/26 01:09:38;;;;;;;7.80;4.32;;;;;;;;;;4918237;28;20067;-63
2024/03/26 01:12:25;;;;;;;13.07;5.28;;;;;;;;;;4937848;28;21482;-61
2024/03/26 01:15:19;;;;;;;8.75;4.57;;;;;;;;;;4922788;28;20505;-60
2024/03/26 01:18:19;;;;;;;9.63;4.70;;;;;;;;;;4918196;28;20063;-60
2024/03/26 01:21:12;;;;;;;10.32;4.22;;;;;;;;;;4909785;29;20056;-60
2024/03/26 01:23:58;;;;;;;12.27;5.00;;;;;;;;;;4902835;29;20574;-60
2024/03/26 01:26:51;;;;;;;10.20;4.90;;;;;;;;;;4899548;29;20055;-62
2024/03/26 01:29:37;;;;;;;11.70;4.57;;;;;;;;;;4902860;29;20067;-61
2024/03/26 01:32:29;;;;;;;8.75;4.40;;;;;;;;;;4900204;29;20058;-61
2024/03/26 01:35:16;;;;;;;10.40;4.55;;;;;;;;;;4899064;29;20410;-60
2024/03/26 01:38:08;;;;;;;8.75;4.68;;;;;;;;;;4907661;29;20055;-52
2024/03/26 01:41:01;;;;;;;10.77;5.07;;;;;;;;;;4906283;29;20064;-60
2024/03/26 01:43:48;;;;;;;9.82;5.10;;;;;;;;;;4899481;29;20051;-60
2024/03/26 01:46:40;;;;;;;10.48;4.18;;;;;;;;;;4906221;29;20453;-60
2024/03/26 01:49:28;;;;;;;7.00;3.85;;;;;;;;;;4907714;29;20067;-60
2024/03/26 01:52:21;;;;;;;9.90;4.35;;;;;;;;;;4902804;29;20491;-61
2024/03/26 01:55:07;;;;;;;14.23;4.57;;;;;;;;;;4901193;29;20598;-60
2024/03/26 01:58:01;;;;;;;8.75;4.70;;;;;;;;;;4907123;29;20063;-53
2024/03/26 02:00:48;;;;;;;9.80;4.80;;;;;;;;;;4902172;29;20064;-53
2024/03/26 02:03:42;;;;;;;6.85;4.40;;;;;;;;;;4901903;29;20107;-49
2024/03/26 02:06:28;;;;;;;6.85;4.70;;;;;;;;;;4902935;29;20656;-60
2024/03/26 02:09:20;;;;;;;11.40;4.38;;;;;;;;;;4903576;29;20059;-60
2024/03/26 02:12:07;;;;;;;7.30;4.32;;;;;;;;;;4900513;29;20064;-60
2024/03/26 02:15:00;;;;;;;8.02;4.68;;;;;;;;;;4905689;29;20120;-60
2024/03/26 02:17:52;;;;;;;7.03;4.70;;;;;;;;;;4900566;29;20106;-60
2024/03/26 02:20:46;;;;;;;;;;;;;;;;;;4905681;29;20525;-60
2024/03/26 02:23:32;;;;;;;9.65;5.22;;;;;;;;;;4902175;29;19929;-61
2024/03/26 02:26:24;;;;;;;9.13;5.00;;;;;;;;;;4903722;29;20548;-64
2024/03/26 02:29:11;;;;;;;10.00;5.40;;;;;;;;;;4900710;29;20056;-64
2024/03/26 02:32:04;;;;;;;7.47;5.38;;;;;;;;;;4904418;29;20052;-64
2024/03/26 02:34:51;;;;;;;14.48;5.22;;;;;;;;;;4903282;29;20566;-61
2024/03/26 02:37:44;;;;;;;9.05;5.00;;;;;;;;;;4921222;29;20059;-52
2024/03/26 02:40:32;;;;;;;13.23;5.93;;;;;;;;;;4908045;29;20060;-50
2024/03/26 02:43:24;;;;;;;10.32;5.45;;;;;;;;;;4907002;29;20059;-49
2024/03/26 02:46:10;;;;;;;8.20;4.78;;;;;;;;;;4901071;29;20059;-53
2024/03/26 02:49:02;;;;;;;9.02;5.00;;;;;;;;;;4902560;29;20060;-51
2024/03/26 02:51:49;;;;;;;9.98;5.18;;;;;;;;;;4899416;29;20415;-51
2024/03/26 02:54:42;;;;;;;10.55;5.20;;;;;;;;;;4897834;29;20068;-48
2024/03/26 02:57:28;;;;;;;11.65;5.50;;;;;;;;;;4898173;29;20067;-51
2024/03/26 03:00:21;;;;;;;10.05;5.93;;;;;;;;;;4899437;29;20529;-48
2024/03/26 03:03:07;;;;;;;12.55;5.63;;;;;;;;;;4900673;29;20071;-60
2024/03/26 03:06:00;;;;;;;12.38;5.97;;;;;;;;;;4915926;29;20526;-64
2024/03/26 03:08:46;;;;;;;11.57;6.13;;;;;;;;;;4902106;29;20087;-64
2024/03/26 03:11:39;;;;;;;11.25;5.35;;;;;;;;;;4903299;29;20056;-64
2024/03/26 03:14:25;;;;;;;9.40;5.82;;;;;;;;;;4900221;29;20527;-64
2024/03/26 03:17:30;;;;;;;12.93;6.00;;;;;;;;;;4911353;28;20063;-64
2024/03/26 03:20:24;;;;;;;13.45;6.53;;;;;;;;;;4921964;28;20059;-63
2024/03/26 03:23:16;;;;;;;13.90;6.35;;;;;;;;;;4925812;28;20063;-50
2024/03/26 03:26:03;;;;;;;16.02;6.63;;;;;;;;;;4919862;28;20425;-49
2024/03/26 03:28:56;;;;;;;9.63;5.80;;;;;;;;;;4928787;29;20062;-51
2024/03/26 03:31:43;;;;;;;11.20;6.00;;;;;;;;;;4922008;28;20055;-64
2024/03/26 03:34:34;;;;;;;12.90;6.20;;;;;;;;;;4926693;28;20438;-52
2024/03/26 03:37:21;;;;;;;10.15;5.57;;;;;;;;;;4928579;28;20070;-50
2024/03/26 03:40:13;;;;;;;11.35;6.72;;;;;;;;;;4923493;28;20122;-52
2024/03/26 03:43:00;;;;;;;10.60;5.90;;;;;;;;;;4926005;28;20066;-48
2024/03/26 03:45:52;;;;;;;10.40;5.85;;;;;;;;;;4926253;28;20066;-54
2024/03/26 03:48:39;;;;;;;11.13;5.50;;;;;;;;;;4923206;29;20071;-52
2024/03/26 03:51:55;;;;;;;11.63;5.47;;;;;;;;;;4940967;28;20099;-59
2024/03/26 03:54:40;;;;;;;9.05;5.53;;;;;;;;;;4936906;28;20070;-61
2024/03/26 03:57:32;;;;;;;12.43;6.57;;;;;;;;;;4922683;28;20047;-60
2024/03/26 04:00:19;;;;;;;12.30;6.93;;;;;;;;;;4924676;29;20066;-60
2024/03/26 04:03:11;;;;;;;12.27;6.40;;;;;;;;;;4923254;28;20067;-63
2024/03/26 04:06:05;;;;;;;10.07;6.03;;;;;;;;;;4924840;28;20055;-63
2024/03/26 04:08:57;;;;;;;10.82;6.00;;;;;;;;;;4925497;28;20062;-63
2024/03/26 04:11:51;;;;;;;9.63;5.53;;;;;;;;;;4920715;28;20066;-64
2024/03/26 04:14:37;;;;;;;12.02;6.30;;;;;;;;;;4923282;28;20118;-64
2024/03/26 04:17:36;;;;;;;9.73;5.65;;;;;;;;;;4927997;29;20058;-63
2024/03/26 04:20:22;;;;;;;10.43;5.88;;;;;;;;;;4930433;28;20086;-60
2024/03/26 04:23:16;;;;;;;12.68;6.65;;;;;;;;;;4923074;28;20071;-60
2024/03/26 04:26:02;;;;;;;12.82;6.53;;;;;;;;;;4934067;28;20055;-60
2024/03/26 04:28:55;;;;;;;10.93;6.53;;;;;;;;;;4939789;28;20051;-61
2024/03/26 04:31:41;;;;;;;13.18;7.20;;;;;;;;;;4927125;28;20066;-53
2024/03/26 04:34:34;;;;;;;12.68;6.95;;;;;;;;;;4924481;28;20420;-51
2024/03/26 04:37:20;;;;;;;11.15;6.18;;;;;;;;;;4919291;28;20090;-49
2024/03/26 04:40:13;;;;;;;10.07;6.05;;;;;;;;;;4918241;28;20528;-48
2024/03/26 04:42:59;;;;;;;10.68;6.07;;;;;;;;;;4922094;28;20905;-53
2024/03/26 04:45:52;;;;;;;7.78;5.07;;;;;;;;;;4926425;28;20113;-50
2024/03/26 04:48:44;;;;;;;8.70;4.38;;;;;;;;;;4925119;28;20288;-64
2024/03/26 04:51:38;;;;;;;6.78;4.38;;;;;;;;;;4930181;28;20063;-64
2024/03/26 04:54:24;;;;;;;6.28;3.92;;;;;;;;;;4924495;29;20591;-64
2024/03/26 04:57:17;;;;;;;5.22;3.67;;;;;;;;;;4918011;28;20068;-61
2024/03/26 05:00:03;;;;;;;7.97;4.50;;;;;;;;;;4921337;28;20055;-60
2024/03/26 05:02:57;;;;;;;4.80;3.40;;;;;;;;;;4922511;28;20066;-61
2024/03/26 05:05:43;;;;;;;4.53;3.28;;;;;;;;;;4916967;28;20110;-61
2024/03/26 05:08:36;;;;;;;6.38;3.80;;;;;;;;;;4925461;28;20149;-60
2024/03/26 05:11:22;;;;;;;4.28;2.83;;;;;;;;;;4925611;28;20074;-61
2024/03/26 05:14:15;;;;;;;4.47;3.00;;;;;;;;;;4924655;28;20539;-60
2024/03/26 05:17:07;;;;;;;4.10;2.88;;;;;;;;;;4918786;29;20079;-53
2024/03/26 05:20:09;;;;;;;5.45;3.13;;;;;;;;;;4904771;29;20105;-48
2024/03/26 05:22:54;;;;;;;6.13;2.83;;;;;;;;;;4906078;29;20059;-51
2024/03/26 05:25:48;;;;;;;3.35;2.40;;;;;;;;;;4904450;29;20051;-62
2024/03/26 05:28:34;;;;;;;3.75;2.60;;;;;;;;;;4902603;29;20062;-61
2024/03/26 05:31:27;;;;;;;3.78;2.70;;;;;;;;;;4900553;29;20695;-61
2024/03/26 05:34:13;;;;;;;3.78;2.85;;;;;;;;;;4899434;29;20469;-61
2024/03/26 05:37:06;;;;;;;5.70;3.15;;;;;;;;;;4898416;29;20078;-63
2024/03/26 05:39:52;;;;;;;6.75;3.20;;;;;;;;;;4904210;29;20051;-61
2024/03/26 05:42:45;;;;;;;6.75;3.17;;;;;;;;;;4904844;29;20434;-61
2024/03/26 05:45:31;;;;;;;4.10;3.10;;;;;;;;;;4901235;29;20059;-59
2024/03/26 05:48:24;;;;;;;5.13;2.85;;;;;;;;;;4893613;29;20277;-60
2024/03/26 05:51:10;;;;;;;5.32;3.53;;;;;;;;;;4915031;29;20066;-60
2024/03/26 05:54:03;;;;;;;4.82;3.40;;;;;;;;;;4899750;29;20060;-51
2024/03/26 05:56:49;;;;;;;8.60;3.78;;;;;;;;;;4899694;29;20062;-53
2024/03/26 05:59:42;;;;;;;9.90;4.00;;;;;;;;;;4902852;29;20066;-53
2024/03/26 06:02:28;;;;;;;9.45;3.92;;;;;;;;;;4912580;29;20430;-52
2024/03/26 06:05:21;;;;;;;11.30;4.25;;;;;;;;;;4900365;29;20063;-49
2024/03/26 06:08:13;;;;;;;11.40;4.05;;;;;;;;;;4905855;29;20063;-53
2024/03/26 06:11:07;;;;;;;7.88;3.80;;;;;;;;;;4908531;29;20063;-52
2024/03/26 06:13:53;;;;;;;6.47;3.88;;;;;;;;;;4905082;29;20518;-63
2024/03/26 06:16:52;;;;;;;7.55;3.80;;;;;;;;;;4905856;28;20576;-60
2024/03/26 06:19:38;;;;;;;6.47;3.70;;;;;;;;;;4935225;28;20043;-60
2024/03/26 06:22:32;;;;;;;5.00;3.72;;;;;;;;;;4928251;28;20062;-60
2024/03/26 06:25:18;;;;;;;5.75;3.50;;;;;;;;;;4923906;28;20056;-60
2024/03/26 06:28:11;;;;;;;4.53;3.45;;;;;;;;;;4915869;28;20067;-60
2024/03/26 06:30:57;;;;;;;6.03;3.80;;;;;;;;;;4923752;28;20060;-59
2024/03/26 06:33:50;;;;;;;7.93;4.10;;;;;;;;;;4924446;28;20067;-60
2024/03/26 06:36:36;;;;;;;5.70;3.80;;;;;;;;;;4942170;28;20059;-60
2024/03/26 06:39:29;;;;;;;6.38;3.90;;;;;;;;;;4921717;28;20059;-60
2024/03/26 06:42:15;;;;;;;5.85;3.72;;;;;;;;;;4920037;28;20059;-60
2024/03/26 06:45:08;;;;;;;8.73;4.10;;;;;;;;;;4923763;29;20513;-49
2024/03/26 06:48:00;;;;;;;7.22;3.85;;;;;;;;;;4922081;28;20047;-53
2024/03/26 06:50:54;;;;;;;13.27;4.50;;;;;;;;;;4922477;28;20334;-48
2024/03/26 06:53:40;;;;;;;8.20;4.65;;;;;;;;;;4926955;28;20056;-48
2024/03/26 06:56:33;;;;;;;10.20;5.18;;;;;;;;;;4923402;28;20066;-51
2024/03/26 06:59:19;;;;;;;11.23;5.03;;;;;;;;;;4926575;28;20410;-60
2024/03/26 07:02:12;;;;;;;9.07;5.03;;;;;;;;;;4926710;28;20060;-60
2024/03/26 07:04:58;;;;;;;7.75;4.57;;;;;;;;;;4928846;28;20117;-60
2024/03/26 07:07:51;;;;;;;9.32;4.85;;;;;;;;;;4924812;28;20074;-59
2024/03/26 07:10:37;;;;;;;11.85;5.22;;;;;;;;;;4935913;28;20721;-59
2024/03/26 07:13:30;;;;;;;10.82;5.45;;;;;;;;;;4941232;28;20061;-51
2024/03/26 07:16:16;;;;;;;13.13;6.38;;;;;;;;;;4941120;28;20505;-47
2024/03/26 07:19:15;;;;;;;17.55;6.25;;;;;;;;;;4910951;29;20411;-50
2024/03/26 07:22:08;;;;;;;13.13;6.15;;;;;;;;;;4910053;29;20083;-48
2024/03/26 07:24:54;;;;;;;13.05;5.80;;;;;;;;;;4912038;29;20434;-51
2024/03/26 07:27:47;;;;;;;17.60;6.07;;;;;;;;;;4920967;29;20071;-59
2024/03/26 07:30:33;;;;;;;12.73;6.78;;;;;;;;;;4906596;29;20055;-59
2024/03/26 07:33:26;;;;;;;19.27;7.25;;;;;;;;;;4909383;29;20063;-59
2024/03/26 07:36:12;;;;;;;13.23;6.82;;;;;;;;;;4905342;29;20079;-59
2024/03/26 07:39:04;;;;;;;16.75;6.63;;;;;;;;;;4924416;29;20067;-59
2024/03/26 07:41:58;;;;;;;20.73;7.47;;;;;;;;;;4906085;29;20055;-50
2024/03/26 07:44:44;;;;;;;13.88;6.88;;;;;;;;;;4907278;29;20055;-48
2024/03/26 07:47:37;;;;;;;20.80;8.65;;;;;;;;;;4905411;29;20111;-52
2024/03/26 07:50:23;;;;;;;15.57;6.93;;;;;;;;;;4911405;29;20706;-49
2024/03/26 07:53:16;;;;;;;16.67;7.10;;;;;;;;;;4924848;29;20123;-50
2024/03/26 07:56:02;;;;;;;17.70;6.10;;;;;;;;;;4908474;29;20521;-59
2024/03/26 07:58:55;;;;;;;18.15;7.75;;;;;;;;;;4921453;29;20092;-59
2024/03/26 08:01:41;;;;;;;15.68;7.32;;;;;;;;;;4908290;29;20060;-59
2024/03/26 08:04:34;;;;;;;16.48;6.50;;;;;;;;;;4924515;29;20063;-59
2024/03/26 08:07:20;;;;;;;15.07;7.50;;;;;;;;;;4905862;29;20060;-63
2024/03/26 08:10:13;;;;;;;20.10;6.57;;;;;;;;;;4909320;29;20052;-60
2024/03/26 08:12:59;;;;;;;12.40;6.03;;;;;;;;;;4910988;29;20060;-60
2024/03/26 08:15:52;;;;;;;10.57;6.35;;;;;;;;;;4908699;29;20052;-60
2024/03/26 08:18:44;;;;;;;15.25;6.43;;;;;;;;;;4921414;28;20075;-60
2024/03/26 08:21:38;;;;;;;14.90;6.40;;;;;;;;;;4944027;28;20058;-60
2024/03/26 08:24:24;;;;;;;16.75;6.53;;;;;;;;;;4925565;28;20069;-48
2024/03/26 08:27:18;;;;;;;12.25;5.53;;;;;;;;;;4938770;28;20060;-51
2024/03/26 08:30:04;;;;;;;16.23;6.07;;;;;;;;;;4923997;28;20063;-54
2024/03/26 08:32:58;;;;;;;14.57;5.88;;;;;;;;;;4926067;28;20059;-49
2024/03/26 08:35:44;;;;;;;9.43;4.88;;;;;;;;;;4925715;28;20063;-63
2024/03/26 08:38:38;;;;;;;20.05;5.28;;;;;;;;;;4926521;28;20066;-63
2024/03/26 08:41:23;;;;;;;20.48;5.80;;;;;;;;;;4927626;29;20509;-64
2024/03/26 08:44:16;;;;;;;11.80;3.92;;;;;;;;;;4926141;28;20605;-63
2024/03/26 08:47:03;;;;;;;14.20;4.72;;;;;;;;;;4928124;28;20066;-63
2024/03/26 08:49:56;;;;;;;12.90;5.72;;;;;;;;;;4926635;28;20063;-63
2024/03/26 08:52:42;;;;;;;15.10;5.30;;;;;;;;;;4920954;28;20056;-51
2024/03/26 08:55:35;;;;;;;13.38;4.80;;;;;;;;;;4928128;28;20062;-49
2024/03/26 08:58:21;;;;;;;12.90;5.30;;;;;;;;;;4923539;28;20059;-51
2024/03/26 09:01:14;;;;;;;25.23;5.25;;;;;;;;;;4938438;28;20059;-48
2024/03/26 09:04:00;;;;;;;12.82;3.92;;;;;;;;;;4928351;28;20513;-60
2024/03/26 09:06:53;;;;;;;18.98;4.90;;;;;;;;;;4927057;29;20055;-60
2024/03/26 09:09:46;;;;;;;13.57;4.45;;;;;;;;;;4939691;28;20070;-61
2024/03/26 09:12:33;;;;;;;17.88;4.35;;;;;;;;;;4923628;28;20059;-60
2024/03/26 09:15:26;;;;;;;9.88;3.95;;;;;;;;;;4929054;28;20603;-61
2024/03/26 09:18:18;;;;;;;10.27;3.45;;;;;;;;;;4926897;28;20063;-62
2024/03/26 09:21:11;;;;;;;13.18;3.58;;;;;;;;;;4929108;28;20067;-61
2024/03/26 09:23:57;;;;;;;12.35;3.17;;;;;;;;;;4920872;28;20066;-61
2024/03/26 09:26:50;;;;;;;14.85;3.38;;;;;;;;;;4929071;28;20059;-61
2024/03/26 09:29:36;;;;;;;8.52;2.92;;;;;;;;;;4925701;28;20059;-61
2024/03/26 09:32:29;;;;;;;12.32;3.20;;;;;;;;;;4930600;28;20055;-60
2024/03/26 09:35:15;;;;;;;11.50;3.28;;;;;;;;;;4921745;28;20059;-49
2024/03/26 09:38:08;;;;;;;16.10;3.75;;;;;;;;;;4921513;28;20260;-54
2024/03/26 09:40:58;;;;;;;13.27;3.92;;;;;;;;;;4924218;28;20279;-50
2024/03/26 09:43:53;;;;;;;9.68;3.03;;;;;;;;;;4924206;29;20059;-53
2024/03/26 09:46:40;;;;;;;14.23;3.90;;;;;;;;;;4923804;28;20050;-50
2024/03/26 09:49:34;;;;;;;11.20;2.83;;;;;;;;;;4930142;28;20067;-63
2024/03/26 09:52:20;;;;;;;9.38;2.50;;;;;;;;;;4924316;29;20055;-63
2024/03/26 09:55:14;;;;;;;13.25;3.30;;;;;;;;;;4922285;28;20517;-63
2024/03/26 09:58:00;;;;;;;8.45;2.50;;;;;;;;;;4921354;28;20513;-63
2024/03/26 10:00:53;;;;;;;8.25;2.63;;;;;;;;;;4921518;29;20063;-60
2024/03/26 10:03:39;;;;;;;14.23;3.33;;;;;;;;;;4919644;28;20524;-52
2024/03/26 10:06:33;;;;;;;11.13;2.92;;;;;;;;;;4926939;28;20051;-53
2024/03/26 10:09:19;;;;;;;8.40;2.55;;;;;;;;;;4920653;28;20067;-53
2024/03/26 10:12:12;;;;;;;10.88;2.80;;;;;;;;;;4922237;29;20059;-52
2024/03/26 10:15:05;;;;;;;11.50;3.05;;;;;;;;;;4935705;28;20624;-50
2024/03/26 10:17:58;;;;;;;17.75;3.75;;;;;;;;;;4920977;28;20078;-60
2024/03/26 10:20:58;;;;;;;9.18;2.58;;;;;;;;;;4926667;28;20055;-60
2024/03/26 10:23:45;;;;;;;12.70;2.85;;;;;;;;;;4924509;28;20063;-60
2024/03/26 10:26:38;;;;;;;8.68;2.30;;;;;;;;;;4924429;28;20051;-60
2024/03/26 10:29:24;;;;;;;7.00;2.53;;;;;;;;;;4921101;29;20422;-62
2024/03/26 10:32:22;;;;;;;8.07;2.80;;;;;;;;;;4925405;28;20999;-61
2024/03/26 10:35:09;;;;;;;8.82;2.63;;;;;;;;;;4922340;28;20063;-61
2024/03/26 10:38:03;;;;;;;9.27;2.20;;;;;;;;;;4923200;28;20434;-61
2024/03/26 10:41:03;;;;;;;11.20;3.05;;;;;;;;;;4925903;28;20059;-61
2024/03/26 10:43:56;;;;;;;6.80;2.63;;;;;;;;;;4928901;28;20513;-60
2024/03/26 10:46:42;;;;;;;15.35;3.00;;;;;;;;;;4922534;28;20060;-61
2024/03/26 10:49:35;;;;;;;7.72;2.10;;;;;;;;;;4929803;28;20529;-61
2024/03/26 10:52:23;;;;;;;9.90;2.70;;;;;;;;;;4925508;29;20458;-61
2024/03/26 10:55:21;;;;;;;9.32;2.40;;;;;;;;;;4922377;29;20063;-61
2024/03/26 10:58:15;;;;;;;9.68;2.80;;;;;;;;;;4921645;29;20051;-61
2024/03/26 11:01:08;;;;;;;6.90;2.90;;;;;;;;;;4931813;28;20066;-61
2024/03/26 11:04:01;;;;;;;8.82;2.47;;;;;;;;;;4926713;29;20063;-61
2024/03/26 11:06:54;;;;;;;8.65;2.90;;;;;;;;;;4926983;28;20063;-61
2024/03/26 11:09:40;;;;;;;18.38;3.08;;;;;;;;;;4926533;28;20118;-61
2024/03/26 11:12:36;;;;;;;11.65;2.92;;;;;;;;;;4927668;28;20063;-61
2024/03/26 11:15:24;;;;;;;12.27;2.88;;;;;;;;;;4922913;28;20066;-61
2024/03/26 11:18:32;;;;;;;10.52;2.60;;;;;;;;;;4915489;29;20526;-61
2024/03/26 11:21:39;;;;;;;7.33;2.63;;;;;;;;;;4922659;29;20063;-61
2024/03/26 11:24:26;;;;;;;6.00;2.55;;;;;;;;;;4913217;29;20376;-61
2024/03/26 11:27:19;;;;;;;7.82;3.38;;;;;;;;;;4906768;29;20051;-63
2024/03/26 11:30:05;;;;;;;9.57;3.15;;;;;;;;;;4910461;29;20051;-63
2024/03/26 11:33:00;;;;;;;9.93;3.42;;;;;;;;;;4908439;29;20075;-63
2024/03/26 11:35:46;;;;;;;16.55;4.10;;;;;;;;;;4905097;29;20051;-63
2024/03/26 11:38:41;;;;;;;13.27;3.90;;;;;;;;;;4910090;29;20060;-63
2024/03/26 11:41:34;;;;;;;18.05;3.67;;;;;;;;;;4911974;29;20052;-63
2024/03/26 11:44:27;;;;;;;16.45;4.00;;;;;;;;;;4903563;29;20063;-61
2024/03/26 11:47:13;;;;;;;7.93;3.47;;;;;;;;;;4905843;29;20138;-61
2024/03/26 11:50:07;;;;;;;14.13;4.43;;;;;;;;;;4906551;29;20131;-61
2024/03/26 11:52:53;;;;;;;15.00;4.40;;;;;;;;;;4909474;29;20370;-60
2024/03/26 11:55:52;;;;;;;16.98;4.63;;;;;;;;;;4906637;29;20060;-61
2024/03/26 11:58:39;;;;;;;11.07;3.38;;;;;;;;;;4913091;29;20051;-51
2024/03/26 12:01:32;;;;;;;7.13;2.55;;;;;;;;;;4911673;29;20516;-46
2024/03/26 12:04:18;;;;;;;10.07;2.83;;;;;;;;;;4922956;29;20797;-51
2024/03/26 12:07:31;;;;;;;12.43;2.97;;;;;;;;;;4924021;29;20119;-48
2024/03/26 12:10:17;;;;;;;11.60;3.03;;;;;;;;;;4907246;29;20120;-47
2024/03/26 12:13:10;;;;;;;10.77;3.42;;;;;;;;;;4920004;29;20116;-61
2024/03/26 12:15:56;;;;;;;12.43;3.15;;;;;;;;;;4901062;29;20063;-60
2024/03/26 12:18:56;;;;;;;10.57;3.42;;;;;;;;;;4924224;28;20114;-60
2024/03/26 12:21:44;;;;;;;8.48;2.80;;;;;;;;;;4923536;28;20054;-54
2024/03/26 12:24:37;;;;;;;10.02;3.20;;;;;;;;;;4918534;28;20059;-60
2024/03/26 12:27:23;;;;;;;11.43;3.65;;;;;;;;;;4927459;28;20123;-64
2024/03/26 12:30:16;;;;;;;10.20;3.70;;;;;;;;;;4931376;29;20062;-64
2024/03/26 12:33:02;;;;;;;12.07;3.10;;;;;;;;;;4931375;28;20549;-64
2024/03/26 12:35:57;;;;;;;10.10;3.13;;;;;;;;;;4928800;28;20047;-64
2024/03/26 12:38:41;;;;;;;11.98;3.20;;;;;;;;;;4924801;28;20406;-65
2024/03/26 12:41:35;;;;;;;9.40;2.97;;;;;;;;;;4924406;28;20074;-61
2024/03/26 12:44:28;;;;;;;14.23;3.15;;;;;;;;;;4922411;28;20075;-61
2024/03/26 12:47:21;;;;;;;9.85;3.33;;;;;;;;;;4926848;28;20486;-61
2024/03/26 12:50:07;;;;;;;13.25;3.70;;;;;;;;;;4925866;28;20059;-62
2024/03/26 12:53:00;;;;;;;13.57;2.95;;;;;;;;;;4924892;28;20514;-60
2024/03/26 12:55:53;;;;;;;8.77;3.03;;;;;;;;;;4934511;28;21236;-60
2024/03/26 12:58:46;;;;;;;11.38;2.95;;;;;;;;;;4926967;28;20422;-61
2024/03/26 13:01:39;;;;;;;11.30;3.05;;;;;;;;;;4926961;28;20056;-60
2024/03/26 13:04:32;;;;;;;10.13;2.95;;;;;;;;;;4924132;28;20067;-60
2024/03/26 13:07:18;;;;;;;8.68;2.92;;;;;;;;;;4927056;28;20062;-60
2024/03/26 13:10:11;;;;;;;8.38;3.08;;;;;;;;;;4921420;28;20067;-60
2024/03/26 13:12:57;;;;;;;10.75;2.92;;;;;;;;;;4925261;28;20054;-60
2024/03/26 13:15:50;;;;;;;13.07;3.20;;;;;;;;;;4928249;29;20106;-60
2024/03/26 13:18:42;;;;;;;13.10;3.22;;;;;;;;;;4919315;28;20581;-65
2024/03/26 13:21:45;;;;;;;12.73;2.95;;;;;;;;;;4928220;28;20070;-62
2024/03/26 13:24:30;;;;;;;9.00;3.00;;;;;;;;;;4924841;28;20055;-62
2024/03/26 13:27:22;;;;;;;9.82;3.17;;;;;;;;;;4921306;28;20055;-62
2024/03/26 13:30:09;;;;;;;12.45;2.80;;;;;;;;;;4922954;29;21662;-62
2024/03/26 13:33:01;;;;;;;9.98;2.42;;;;;;;;;;4927406;28;20655;-62
2024/03/26 13:35:47;;;;;;;10.82;3.20;;;;;;;;;;4918420;28;20471;-62
2024/03/26 13:38:40;;;;;;;9.90;3.00;;;;;;;;;;4922655;28;20051;-60
2024/03/26 13:41:26;;;;;;;9.55;3.30;;;;;;;;;;4928596;28;20509;-61
2024/03/26 13:44:19;;;;;;;13.95;2.83;;;;;;;;;;4932830;28;20059;-61
2024/03/26 13:47:05;;;;;;;9.38;2.88;;;;;;;;;;4924597;28;20071;-65
2024/03/26 13:49:58;;;;;;;7.40;2.90;;;;;;;;;;4938086;28;20527;-60
2024/03/26 13:52:44;;;;;;;12.18;3.10;;;;;;;;;;4920996;28;20066;-47
2024/03/26 13:55:37;;;;;;;14.07;2.72;;;;;;;;;;4921111;28;20516;-50
2024/03/26 13:58:30;;;;;;;9.70;2.70;;;;;;;;;;4922741;29;20082;-53
2024/03/26 14:01:23;;;;;;;9.98;2.95;;;;;;;;;;4925459;28;20055;-51
2024/03/26 14:04:10;;;;;;;10.40;2.80;;;;;;;;;;4925064;28;20087;-53
2024/03/26 14:07:02;;;;;;;11.00;3.17;;;;;;;;;;4924736;28;20528;-61
2024/03/26 14:09:48;;;;;;;8.98;2.80;;;;;;;;;;4935625;28;20067;-60
2024/03/26 14:12:42;;;;;;;9.50;2.80;;;;;;;;;;4926088;28;20071;-60
2024/03/26 14:15:29;;;;;;;5.93;2.50;;;;;;;;;;4941344;28;20066;-50
2024/03/26 14:18:28;;;;;;;7.28;2.40;;;;;;;;;;4929155;28;20064;-49
2024/03/26 14:21:22;;;;;;;7.72;2.35;;;;;;;;;;4922429;28;20051;-49
2024/03/26 14:24:14;;;;;;;9.57;2.42;;;;;;;;;;4921568;28;20685;-46
2024/03/26 14:27:00;;;;;;;9.40;2.60;;;;;;;;;;4920891;28;20994;-51
2024/03/26 14:29:53;;;;;;;10.10;1.98;;;;;;;;;;4919004;28;20532;-48
2024/03/26 14:32:39;;;;;;;8.05;2.35;;;;;;;;;;4922843;28;20067;-47
2024/03/26 14:35:32;;;;;;;7.50;2.78;;;;;;;;;;4921462;28;20055;-62
2024/03/26 14:38:18;;;;;;;10.95;2.13;;;;;;;;;;4923872;28;20436;-62
2024/03/26 14:41:11;;;;;;;10.45;2.38;;;;;;;;;;4928878;28;20060;-62
2024/03/26 14:43:59;;;;;;;6.50;2.03;;;;;;;;;;4916960;28;20067;-59
2024/03/26 14:46:50;;;;;;;12.65;2.50;;;;;;;;;;4927069;29;20063;-59
2024/03/26 14:49:36;;;;;;;8.82;2.30;;;;;;;;;;4922511;28;20126;-52
2024/03/26 14:52:29;;;;;;;8.25;2.60;;;;;;;;;;4922493;28;20573;-50
2024/03/26 14:55:15;;;;;;;7.35;2.70;;;;;;;;;;4921221;28;20055;-50
2024/03/26 14:58:08;;;;;;;8.98;2.55;;;;;;;;;;4931744;28;20058;-50
2024/03/26 15:00:54;;;;;;;8.98;2.28;;;;;;;;;;4926054;28;20079;-51
2024/03/26 15:03:47;;;;;;;11.48;2.75;;;;;;;;;;4942315;28;20058;-49
2024/03/26 15:06:33;;;;;;;15.05;2.45;;;;;;;;;;4925484;28;20473;-51
2024/03/26 15:09:27;;;;;;;9.10;2.30;;;;;;;;;;4921352;28;20809;-47
2024/03/26 15:12:13;;;;;;;5.13;2.08;;;;;;;;;;4932973;28;20054;-60
2024/03/26 15:15:07;;;;;;;4.28;1.83;;;;;;;;;;4918099;28;20055;-48
2024/03/26 15:17:58;;;;;;;8.32;2.10;;;;;;;;;;4916354;28;20350;-50
2024/03/26 15:20:52;;;;;;;;;;;;;;;;;;4923422;28;20458;-51
2024/03/26 15:23:44;;;;;;;8.52;2.17;;;;;;;;;;4922130;28;20005;-52
2024/03/26 15:31:58;;;;;;;7.85;1.98;;;;;;;;;;4929955;28;20059;-47
2024/03/26 15:32:16;;;;;;;7.85;2.28;;;;;;;;;;4942219;28;20052;-63
2024/03/26 15:35:02;;;;;;;8.90;2.50;;;;;;;;;;4939988;28;20563;-63
2024/03/26 15:37:55;;;;;;;7.38;2.20;;;;;;;;;;4925096;28;20055;-63
2024/03/26 15:40:42;;;;;;;5.00;2.10;;;;;;;;;;4920643;28;20063;-60
2024/03/26 15:43:34;;;;;;;9.40;2.58;;;;;;;;;;4924535;28;20070;-51
2024/03/26 15:46:27;;;;;;;9.15;2.83;;;;;;;;;;4925128;28;20448;-60
2024/03/26 15:49:13;;;;;;;8.60;2.40;;;;;;;;;;4922858;28;20452;-60
2024/03/26 15:52:06;;;;;;;11.18;2.42;;;;;;;;;;4928795;28;20086;-59
2024/03/26 15:54:52;;;;;;;11.38;2.58;;;;;;;;;;4924852;29;20060;-60
2024/03/26 15:57:45;;;;;;;7.18;2.33;;;;;;;;;;4923146;28;20067;-60
2024/03/26 16:00:31;;;;;;;10.52;2.88;;;;;;;;;;4924168;29;20067;-50
2024/03/26 16:03:25;;;;;;;12.00;2.58;;;;;;;;;;4924626;28;20051;-48
2024/03/26 16:06:10;;;;;;;9.30;2.33;;;;;;;;;;4927304;28;20485;-49
2024/03/26 16:09:03;;;;;;;10.95;2.50;;;;;;;;;;4926022;28;20847;-50
2024/03/26 16:11:57;;;;;;;6.75;2.38;;;;;;;;;;4929465;28;20059;-66
2024/03/26 16:14:49;;;;;;;10.93;3.17;;;;;;;;;;4927883;29;20071;-66
2024/03/26 16:17:35;;;;;;;6.07;2.50;;;;;;;;;;4922539;28;20062;-64
2024/03/26 16:20:35;;;;;;;7.45;2.55;;;;;;;;;;4928989;28;20058;-63
2024/03/26 16:23:21;;;;;;;7.32;2.53;;;;;;;;;;4925087;28;20110;-64
2024/03/26 16:26:14;;;;;;;9.07;2.67;;;;;;;;;;4928117;28;20058;-65
2024/03/26 16:29:00;;;;;;;4.80;2.65;;;;;;;;;;4924471;28;20067;-60
2024/03/26 16:31:53;;;;;;;9.52;2.70;;;;;;;;;;4924429;28;20055;-60
2024/03/26 16:34:39;;;;;;;10.13;2.58;;;;;;;;;;4926059;28;20067;-61
2024/03/26 16:37:32;;;;;;;9.45;2.42;;;;;;;;;;4925228;28;20063;-59
2024/03/26 16:40:18;;;;;;;10.65;2.60;;;;;;;;;;4924097;28;20433;-61
2024/03/26 16:43:11;;;;;;;9.75;2.78;;;;;;;;;;4919707;28;20706;-61
2024/03/26 16:46:04;;;;;;;10.10;2.83;;;;;;;;;;4917547;29;20433;-61
2024/03/26 16:48:57;;;;;;;11.60;3.08;;;;;;;;;;4925407;29;20055;-60
2024/03/26 16:51:43;;;;;;;13.70;3.40;;;;;;;;;;4928969;28;20090;-61
2024/03/26 16:54:36;;;;;;;12.90;2.45;;;;;;;;;;4925629;28;20059;-60
2024/03/26 16:57:22;;;;;;;8.88;2.97;;;;;;;;;;4923377;28;20051;-61
2024/03/26 17:00:15;;;;;;;11.68;2.80;;;;;;;;;;4920163;28;20068;-61
2024/03/26 17:03:01;;;;;;;10.38;2.45;;;;;;;;;;4918446;28;20517;-61
2024/03/26 17:05:54;;;;;;;8.93;2.42;;;;;;;;;;4924558;28;20433;-61
2024/03/26 17:08:47;;;;;;;8.50;3.03;;;;;;;;;;4921081;29;20064;-60
2024/03/26 17:11:33;;;;;;;10.32;2.75;;;;;;;;;;4920936;29;20071;-60
2024/03/26 17:14:26;;;;;;;12.10;2.88;;;;;;;;;;4921629;28;20114;-60